createdAt,value
2022-11-29T00:01:40.760Z,27.53
2022-11-29T00:04:08.981Z,27.57
2022-11-29T00:06:37.860Z,25.30
2022-11-29T00:09:08.537Z,30.33
2022-11-29T00:11:56.419Z,29.37
2022-11-29T00:14:25.445Z,28.67
2022-11-29T00:16:56.239Z,28.93
2022-11-29T00:19:24.807Z,28.53
2022-11-29T00:21:53.283Z,33.07
2022-11-29T00:24:21.959Z,31.17
2022-11-29T00:26:50.728Z,32.13
2022-11-29T00:29:19.287Z,32.97
2022-11-29T00:31:47.723Z,30.93
2022-11-29T00:34:17.645Z,31.27
2022-11-29T00:36:46.139Z,31.10
2022-11-29T00:39:16.287Z,32.07
2022-11-29T00:41:44.910Z,30.23
2022-11-29T00:44:19.652Z,34.13
2022-11-29T00:46:48.495Z,31.77
2022-11-29T00:49:18.493Z,33.77
2022-11-29T00:51:47.003Z,35.17
2022-11-29T00:54:15.388Z,31.97
2022-11-29T00:56:43.874Z,35.20
2022-11-29T00:59:12.305Z,33.10
2022-11-29T01:01:40.814Z,35.47
2022-11-29T01:04:09.384Z,32.60
2022-11-29T01:06:39.231Z,32.00
2022-11-29T01:09:07.676Z,32.23
2022-11-29T01:11:36.139Z,35.20
2022-11-29T01:14:04.910Z,33.50
2022-11-29T01:16:33.800Z,31.17
2022-11-29T01:19:02.672Z,36.33
2022-11-29T01:21:31.466Z,33.43
2022-11-29T01:24:01.966Z,34.37
2022-11-29T01:26:31.727Z,34.40
2022-11-29T01:29:00.563Z,35.63
2022-11-29T01:31:30.455Z,35.53
2022-11-29T01:33:59.652Z,34.80
2022-11-29T01:36:28.169Z,37.73
2022-11-29T01:38:56.821Z,32.13
2022-11-29T01:41:28.004Z,33.73
2022-11-29T01:43:58.089Z,36.00
2022-11-29T01:46:27.014Z,36.57
2022-11-29T01:48:56.976Z,36.60
2022-11-29T01:51:25.848Z,36.03
2022-11-29T01:53:54.861Z,33.23
2022-11-29T01:56:23.672Z,36.80
2022-11-29T01:58:53.613Z,34.27
2022-11-29T02:01:22.046Z,34.57
2022-11-29T02:03:50.553Z,35.53
2022-11-29T02:06:19.373Z,34.67
2022-11-29T02:08:47.895Z,34.23
2022-11-29T02:11:40.911Z,34.57
2022-11-29T02:14:26.996Z,36.13
2022-11-29T02:17:04.517Z,37.60
2022-11-29T02:20:05.683Z,35.00
2022-11-29T02:22:42.742Z,37.97
2022-11-29T02:25:25.763Z,33.80
2022-11-29T02:28:40.305Z,35.60
2022-11-29T02:31:44.499Z,34.57
2022-11-29T02:34:45.190Z,35.57
2022-11-29T02:37:28.342Z,34.93
2022-11-29T02:40:16.973Z,36.17
2022-11-29T02:43:05.864Z,34.70
2022-11-29T02:45:46.457Z,35.80
2022-11-29T02:48:37.645Z,35.63
2022-11-29T02:51:13.232Z,34.63
2022-11-29T02:53:46.248Z,35.77
2022-11-29T02:56:25.321Z,35.57
2022-11-29T02:59:02.769Z,35.73
2022-11-29T03:01:38.848Z,38.27
2022-11-29T03:04:15.232Z,35.27
2022-11-29T03:06:51.617Z,34.40
2022-11-29T03:09:30.158Z,34.47
2022-11-29T03:12:07.601Z,34.70
2022-11-29T03:14:49.689Z,35.47
2022-11-29T03:17:31.737Z,34.40
2022-11-29T03:20:18.172Z,37.47
2022-11-29T03:22:54.716Z,32.80
2022-11-29T03:25:25.944Z,33.97
2022-11-29T03:27:57.658Z,32.63
2022-11-29T03:30:26.151Z,34.73
2022-11-29T03:32:57.573Z,33.80
2022-11-29T03:35:29.379Z,33.90
2022-11-29T03:38:01.557Z,34.37
2022-11-29T03:40:33.070Z,35.53
2022-11-29T03:43:04.158Z,35.73
2022-11-29T03:45:35.649Z,34.23
2022-11-29T03:48:07.079Z,34.07
2022-11-29T03:50:36.991Z,32.87
2022-11-29T03:53:09.867Z,35.87
2022-11-29T03:55:49.716Z,37.63
2022-11-29T03:58:34.053Z,33.37
2022-11-29T04:01:13.244Z,36.57
2022-11-29T04:03:51.249Z,33.53
2022-11-29T04:06:23.565Z,34.53
2022-11-29T04:09:00.448Z,32.63
2022-11-29T04:11:54.764Z,35.27
2022-11-29T04:14:35.412Z,32.30
2022-11-29T04:17:28.457Z,32.27
2022-11-29T04:20:14.803Z,31.20
2022-11-29T04:23:00.272Z,32.83
2022-11-29T04:25:43.639Z,31.90
2022-11-29T04:28:22.833Z,32.17
2022-11-29T04:30:57.091Z,31.03
2022-11-29T04:33:39.932Z,33.27
2022-11-29T04:36:15.798Z,34.17
2022-11-29T04:39:09.018Z,32.63
2022-11-29T04:41:46.089Z,33.60
2022-11-29T04:44:23.736Z,29.67
2022-11-29T04:47:01.956Z,32.53
2022-11-29T04:49:45.319Z,31.50
2022-11-29T04:52:21.604Z,32.93
2022-11-29T04:54:52.369Z,32.07
2022-11-29T04:57:26.764Z,35.20
2022-11-29T05:00:00.067Z,32.73
2022-11-29T05:02:34.313Z,30.90
2022-11-29T05:05:05.752Z,28.77
2022-11-29T05:07:37.882Z,27.77
2022-11-29T05:10:13.246Z,28.27
2022-11-29T05:12:50.409Z,29.77
2022-11-29T05:15:29.868Z,28.33
2022-11-29T05:18:00.609Z,28.10
2022-11-29T05:20:35.346Z,28.27
2022-11-29T05:23:19.335Z,27.97
2022-11-29T05:25:52.346Z,28.97
2022-11-29T05:28:22.941Z,27.97
2022-11-29T05:31:06.751Z,25.40
2022-11-29T05:33:44.602Z,25.30
2022-11-29T05:36:18.957Z,24.73
2022-11-29T05:38:54.382Z,27.50
2022-11-29T05:41:28.143Z,26.90
2022-11-29T05:44:01.332Z,25.77
2022-11-29T05:46:34.057Z,27.10
2022-11-29T05:49:06.873Z,27.07
2022-11-29T05:51:41.148Z,24.90
2022-11-29T05:54:15.395Z,25.73
2022-11-29T05:56:48.073Z,25.63
2022-11-29T05:59:19.958Z,27.83
2022-11-29T06:01:56.140Z,26.07
2022-11-29T06:04:28.827Z,28.00
2022-11-29T06:07:00.392Z,28.37
2022-11-29T06:09:30.732Z,25.80
2022-11-29T06:12:02.746Z,27.80
2022-11-29T06:14:47.235Z,27.77
2022-11-29T06:17:38.585Z,28.87
2022-11-29T06:20:20.607Z,26.73
2022-11-29T06:22:55.867Z,28.53
2022-11-29T06:25:38.022Z,31.50
2022-11-29T06:28:24.213Z,29.40
2022-11-29T06:30:56.682Z,27.43
2022-11-29T06:33:29.007Z,25.47
2022-11-29T06:36:02.444Z,24.43
2022-11-29T06:38:31.675Z,26.13
2022-11-29T06:41:02.420Z,22.23
2022-11-29T06:43:31.737Z,23.70
2022-11-29T06:46:02.863Z,21.67
2022-11-29T06:48:36.621Z,20.93
2022-11-29T06:51:07.822Z,23.70
2022-11-29T06:53:40.688Z,25.00
2022-11-29T06:56:15.502Z,23.43
2022-11-29T06:58:53.129Z,23.23
2022-11-29T07:01:25.505Z,22.80
2022-11-29T07:04:04.770Z,26.27
2022-11-29T07:06:33.834Z,23.60
2022-11-29T07:09:03.006Z,23.70
2022-11-29T07:11:31.706Z,24.00
2022-11-29T07:14:00.509Z,23.83
2022-11-29T07:16:33.042Z,26.37
2022-11-29T07:19:09.516Z,25.57
2022-11-29T07:21:46.180Z,22.17
2022-11-29T07:24:20.956Z,22.77
2022-11-29T07:26:59.454Z,23.63
2022-11-29T07:29:33.231Z,24.40
2022-11-29T07:32:05.035Z,23.93
2022-11-29T07:34:37.925Z,23.57
2022-11-29T07:37:11.196Z,23.03
2022-11-29T07:39:49.969Z,22.87
2022-11-29T07:42:24.798Z,20.33
2022-11-29T07:45:01.623Z,24.40
2022-11-29T07:47:34.237Z,29.03
2022-11-29T07:50:05.914Z,28.20
2022-11-29T07:52:35.327Z,25.50
2022-11-29T07:55:03.546Z,25.80
2022-11-29T07:57:31.697Z,26.60
2022-11-29T07:59:59.821Z,25.63
2022-11-29T08:02:28.978Z,26.47
2022-11-29T08:04:59.884Z,23.63
2022-11-29T08:07:29.463Z,28.20
2022-11-29T08:09:57.791Z,27.20
2022-11-29T08:12:25.958Z,24.60
2022-11-29T08:14:54.145Z,26.27
2022-11-29T08:17:22.318Z,26.13
2022-11-29T08:19:50.491Z,28.60
2022-11-29T08:22:18.895Z,26.03
2022-11-29T08:24:48.652Z,25.73
2022-11-29T08:27:17.089Z,26.73
2022-11-29T08:29:45.460Z,25.43
2022-11-29T08:32:13.682Z,26.07
2022-11-29T08:34:42.003Z,28.23
2022-11-29T08:37:10.227Z,32.30
2022-11-29T08:39:38.394Z,24.73
2022-11-29T08:42:08.015Z,26.43
2022-11-29T08:44:36.238Z,28.40
2022-11-29T08:47:21.905Z,27.07
2022-11-29T08:50:05.063Z,27.03
2022-11-29T08:52:52.855Z,25.63
2022-11-29T08:55:22.942Z,26.80
2022-11-29T08:57:53.326Z,29.33
2022-11-29T09:00:22.338Z,23.67
2022-11-29T09:02:50.794Z,27.83
2022-11-29T09:05:19.288Z,26.13
2022-11-29T09:07:47.767Z,27.70
2022-11-29T09:10:16.278Z,25.70
2022-11-29T09:12:44.961Z,26.77
2022-11-29T09:15:15.010Z,26.07
2022-11-29T09:17:43.412Z,27.97
2022-11-29T09:20:12.286Z,31.37
2022-11-29T09:22:41.073Z,26.70
2022-11-29T09:25:10.280Z,25.90
2022-11-29T09:27:38.747Z,24.63
2022-11-29T09:30:08.261Z,24.67
2022-11-29T09:32:38.069Z,26.03
2022-11-29T09:35:06.938Z,27.30
2022-11-29T09:37:37.043Z,25.73
2022-11-29T09:40:05.877Z,26.03
2022-11-29T09:42:41.809Z,31.30
2022-11-29T09:45:12.611Z,28.17
2022-11-29T09:47:52.902Z,29.97
2022-11-29T09:50:23.683Z,26.97
2022-11-29T09:52:54.689Z,29.30
2022-11-29T09:55:34.148Z,29.63
2022-11-29T09:58:03.920Z,28.90
2022-11-29T10:00:33.165Z,29.23
2022-11-29T10:03:05.630Z,31.23
2022-11-29T10:05:39.514Z,30.77
2022-11-29T10:08:09.265Z,30.90
2022-11-29T10:10:40.884Z,27.23
2022-11-29T10:13:17.160Z,26.87
2022-11-29T10:15:46.277Z,27.03
2022-11-29T10:18:20.203Z,28.27
2022-11-29T10:20:49.772Z,28.57
2022-11-29T10:23:23.284Z,29.20
2022-11-29T10:25:52.591Z,27.77
2022-11-29T10:28:21.993Z,27.50
2022-11-29T10:30:50.624Z,27.07
2022-11-29T10:33:22.020Z,24.70
2022-11-29T10:35:52.850Z,25.97
2022-11-29T10:38:36.547Z,27.40
2022-11-29T10:41:06.736Z,29.43
2022-11-29T10:43:37.338Z,31.80
2022-11-29T10:46:06.830Z,26.20
2022-11-29T10:48:36.788Z,26.07
2022-11-29T10:51:05.258Z,28.10
2022-11-29T10:53:35.905Z,28.27
2022-11-29T10:56:07.987Z,25.70
2022-11-29T10:58:36.640Z,24.40
2022-11-29T11:01:06.883Z,27.87
2022-11-29T11:03:41.632Z,28.00
2022-11-29T11:06:11.460Z,26.67
2022-11-29T11:08:40.506Z,26.27
2022-11-29T11:11:10.163Z,26.83
2022-11-29T11:13:39.372Z,24.33
2022-11-29T11:16:12.790Z,27.90
2022-11-29T11:18:42.605Z,27.53
2022-11-29T11:21:12.492Z,24.20
2022-11-29T11:23:47.849Z,27.87
2022-11-29T11:26:16.601Z,26.67
2022-11-29T11:28:46.223Z,26.57
2022-11-29T11:31:15.225Z,27.37
2022-11-29T11:33:45.952Z,27.30
2022-11-29T11:36:15.718Z,27.43
2022-11-29T11:38:51.650Z,28.43
2022-11-29T11:41:45.040Z,25.80
2022-11-29T11:47:16.053Z,26.97
2022-11-29T11:49:50.578Z,27.87
2022-11-29T11:52:22.130Z,26.93
2022-11-29T11:54:53.845Z,27.90
2022-11-29T11:57:23.048Z,25.00
2022-11-29T11:59:52.580Z,27.47
2022-11-29T12:02:28.262Z,30.47
2022-11-29T12:04:59.405Z,31.27
2022-11-29T12:07:59.773Z,26.73
2022-11-29T12:10:20.694Z,28.13
2022-11-29T12:12:49.401Z,28.17
2022-11-29T12:15:20.466Z,29.43
2022-11-29T12:17:51.035Z,28.20
2022-11-29T12:20:22.856Z,31.63
2022-11-29T12:22:59.095Z,32.90
2022-11-29T12:25:29.135Z,27.17
2022-11-29T12:27:57.609Z,32.73
2022-11-29T12:30:26.149Z,33.13
2022-11-29T12:33:00.079Z,33.83
2022-11-29T12:35:41.374Z,39.20
2022-11-29T12:38:17.489Z,32.77
2022-11-29T12:40:49.167Z,32.60
2022-11-29T12:43:22.672Z,32.00
2022-11-29T12:45:57.131Z,33.00
2022-11-29T12:48:36.191Z,30.97
2022-11-29T12:51:10.925Z,34.63
2022-11-29T12:53:52.711Z,31.40
2022-11-29T12:56:28.306Z,32.70
2022-11-29T12:59:06.113Z,32.93
2022-11-29T13:01:38.446Z,31.07
2022-11-29T13:04:11.855Z,31.50
2022-11-29T13:06:48.317Z,35.63
2022-11-29T13:09:28.232Z,33.20
2022-11-29T13:11:57.704Z,33.37
2022-11-29T13:14:45.141Z,33.67
2022-11-29T13:17:19.120Z,32.13
2022-11-29T13:19:52.160Z,32.90
2022-11-29T13:22:23.136Z,32.70
2022-11-29T13:24:54.559Z,35.50
2022-11-29T13:27:25.380Z,35.73
2022-11-29T13:29:56.117Z,35.97
2022-11-29T13:32:31.966Z,34.07
2022-11-29T13:35:03.300Z,32.23
2022-11-29T13:37:35.914Z,30.83
2022-11-29T13:40:11.425Z,30.53
2022-11-29T13:42:42.728Z,35.67
2022-11-29T13:45:20.274Z,29.93
2022-11-29T13:47:52.633Z,30.40
2022-11-29T13:50:47.956Z,30.43
2022-11-29T13:53:17.711Z,30.70
2022-11-29T13:55:49.163Z,30.30
2022-11-29T13:58:44.694Z,31.43
2022-11-29T14:01:14.437Z,29.63
2022-11-29T14:03:43.219Z,30.53
2022-11-29T14:06:22.215Z,31.23
2022-11-29T14:09:18.866Z,33.27
2022-11-29T14:11:50.749Z,32.73
2022-11-29T14:14:22.784Z,31.23
2022-11-29T14:16:52.431Z,34.73
2022-11-29T14:19:30.111Z,31.47
2022-11-29T14:22:18.871Z,36.10
2022-11-29T14:24:57.870Z,30.93
2022-11-29T14:27:44.754Z,32.97
2022-11-29T14:30:28.002Z,31.33
2022-11-29T14:33:01.858Z,31.67
2022-11-29T14:35:32.896Z,30.50
2022-11-29T14:38:06.464Z,33.70
2022-11-29T14:40:38.116Z,32.87
2022-11-29T14:43:16.788Z,33.33
2022-11-29T14:45:45.321Z,31.53
2022-11-29T14:48:27.633Z,31.43
2022-11-29T14:51:09.394Z,33.33
2022-11-29T14:53:38.651Z,33.37
2022-11-29T14:56:35.041Z,31.77
2022-11-29T14:59:18.349Z,32.20
2022-11-29T15:01:47.504Z,31.90
2022-11-29T15:04:17.463Z,31.53
2022-11-29T15:06:51.611Z,32.17
2022-11-29T15:09:22.221Z,30.20
2022-11-29T15:11:52.574Z,32.57
2022-11-29T15:14:25.073Z,32.13
2022-11-29T15:17:00.320Z,30.20
2022-11-29T15:19:45.009Z,32.17
2022-11-29T15:22:17.281Z,32.07
2022-11-29T15:24:52.292Z,30.47
2022-11-29T15:27:21.193Z,31.13
2022-11-29T15:29:52.353Z,31.50
2022-11-29T15:32:25.929Z,33.57
2022-11-29T15:34:57.004Z,31.37
2022-11-29T15:37:27.079Z,30.77
2022-11-29T15:40:05.398Z,31.50
2022-11-29T15:42:40.501Z,31.07
2022-11-29T15:45:27.700Z,32.93
2022-11-29T15:47:56.617Z,31.27
2022-11-29T15:50:27.632Z,29.70
2022-11-29T15:52:59.853Z,29.80
2022-11-29T15:55:28.908Z,29.17
2022-11-29T15:58:02.623Z,30.27
2022-11-29T16:00:34.072Z,28.60
2022-11-29T16:03:03.390Z,26.60
2022-11-29T16:05:34.692Z,33.53
2022-11-29T16:08:04.321Z,28.63
2022-11-29T16:10:36.968Z,30.17
2022-11-29T16:13:07.664Z,29.47
2022-11-29T16:15:37.944Z,25.20
2022-11-29T16:18:06.719Z,25.70
2022-11-29T16:20:36.648Z,23.90
2022-11-29T16:23:12.654Z,27.87
2022-11-29T16:25:53.796Z,24.30
2022-11-29T16:28:22.306Z,27.40
2022-11-29T16:30:50.756Z,25.23
2022-11-29T16:33:21.359Z,26.07
2022-11-29T16:35:51.659Z,25.00
2022-11-29T16:38:21.455Z,29.00
2022-11-29T16:41:04.521Z,30.57
2022-11-29T16:43:48.547Z,29.73
2022-11-29T16:46:37.778Z,29.13
2022-11-29T16:49:21.010Z,35.53
2022-11-29T16:51:51.100Z,29.73
2022-11-29T16:54:26.418Z,26.70
2022-11-29T16:56:55.998Z,30.23
2022-11-29T16:59:27.878Z,30.83
2022-11-29T17:01:57.122Z,31.57
2022-11-29T17:04:25.648Z,29.07
2022-11-29T17:06:55.969Z,28.93
2022-11-29T17:09:26.161Z,30.07
2022-11-29T17:11:54.637Z,30.43
2022-11-29T17:14:23.122Z,27.47
2022-11-29T17:16:52.139Z,31.87
2022-11-29T17:19:23.605Z,32.63
2022-11-29T17:21:52.618Z,33.27
2022-11-29T17:24:23.814Z,33.53
2022-11-29T17:26:52.580Z,32.40
2022-11-29T17:29:21.065Z,32.77
2022-11-29T17:31:50.697Z,33.30
2022-11-29T17:34:19.315Z,32.90
2022-11-29T17:36:47.787Z,27.47
2022-11-29T17:39:20.027Z,28.20
2022-11-29T17:41:49.929Z,28.67
2022-11-29T17:44:18.424Z,26.57
2022-11-29T17:46:46.845Z,26.87
2022-11-29T17:49:15.304Z,33.10
2022-11-29T17:51:51.680Z,27.40
2022-11-29T17:54:21.374Z,27.17
2022-11-29T17:56:51.935Z,27.00
2022-11-29T17:59:20.536Z,31.37
2022-11-29T18:01:49.134Z,30.93
2022-11-29T18:04:17.590Z,29.90
2022-11-29T18:06:49.842Z,30.20
2022-11-29T18:09:19.500Z,29.03
2022-11-29T18:11:49.955Z,28.30
2022-11-29T18:14:22.720Z,26.90
2022-11-29T18:16:51.443Z,29.07
2022-11-29T18:19:20.738Z,25.00
2022-11-29T18:21:49.716Z,25.70
2022-11-29T18:24:18.684Z,26.03
2022-11-29T18:26:47.281Z,23.53
2022-11-29T18:29:15.760Z,25.90
2022-11-29T18:31:46.743Z,26.57
2022-11-29T18:34:15.736Z,23.07
2022-11-29T18:36:45.631Z,26.30
2022-11-29T18:39:15.154Z,23.43
2022-11-29T18:41:44.172Z,23.23
2022-11-29T18:44:13.724Z,22.30
2022-11-29T18:46:43.519Z,23.73
2022-11-29T18:49:14.108Z,23.53
2022-11-29T18:51:44.609Z,21.73
2022-11-29T18:54:14.151Z,21.33
2022-11-29T18:56:43.373Z,21.43
2022-11-29T18:59:12.772Z,24.00
2022-11-29T19:01:42.761Z,21.50
2022-11-29T19:04:14.678Z,21.70
2022-11-29T19:06:43.544Z,20.23
2022-11-29T19:09:14.569Z,20.60
2022-11-29T19:11:43.206Z,21.87
2022-11-29T19:14:12.801Z,21.40
2022-11-29T19:16:42.610Z,21.07
2022-11-29T19:19:11.137Z,22.30
2022-11-29T19:21:41.404Z,22.23
2022-11-29T19:24:14.967Z,20.87
2022-11-29T19:26:45.494Z,23.07
2022-11-29T19:29:14.080Z,21.80
2022-11-29T19:31:42.808Z,20.97
2022-11-29T19:34:11.284Z,22.47
2022-11-29T19:36:43.276Z,23.93
2022-11-29T19:39:12.895Z,21.57
2022-11-29T19:41:42.365Z,23.70
2022-11-29T19:44:10.559Z,20.33
2022-11-29T19:46:41.262Z,22.23
2022-11-29T19:49:10.362Z,21.53
2022-11-29T19:51:40.239Z,23.83
2022-11-29T19:54:09.941Z,21.97
2022-11-29T19:56:38.891Z,22.10
2022-11-29T19:59:08.034Z,24.83
2022-11-29T20:01:40.778Z,22.23
2022-11-29T20:04:10.956Z,21.27
2022-11-29T20:06:41.463Z,22.23
2022-11-29T20:09:10.059Z,24.90
2022-11-29T20:11:38.646Z,23.40
2022-11-29T20:14:08.207Z,22.80
2022-11-29T20:16:38.948Z,21.63
2022-11-29T20:19:10.828Z,20.27
2022-11-29T20:21:43.606Z,21.13
2022-11-29T20:24:13.034Z,21.83
2022-11-29T20:26:44.553Z,21.80
2022-11-29T20:29:14.304Z,23.53
2022-11-29T20:31:49.522Z,22.77
2022-11-29T20:34:19.763Z,21.03
2022-11-29T20:37:13.129Z,22.87
2022-11-29T20:39:47.171Z,22.43
2022-11-29T20:42:50.859Z,30.53
2022-11-29T20:45:19.695Z,22.57
2022-11-29T20:47:53.190Z,22.47
2022-11-29T20:50:24.153Z,24.40
2022-11-29T20:53:07.974Z,22.17
2022-11-29T20:55:42.530Z,21.93
2022-11-29T20:58:14.585Z,22.70
2022-11-29T21:00:42.827Z,20.13
2022-11-29T21:03:14.480Z,21.30
2022-11-29T21:05:42.798Z,20.57
2022-11-29T21:08:12.595Z,18.07
2022-11-29T21:10:40.925Z,23.23
2022-11-29T21:13:11.395Z,22.13
2022-11-29T21:15:39.994Z,18.40
2022-11-29T21:18:08.996Z,19.40
2022-11-29T21:20:37.314Z,20.17
2022-11-29T21:23:15.222Z,20.73
2022-11-29T21:25:51.188Z,19.50
2022-11-29T21:28:19.958Z,20.87
2022-11-29T21:30:48.621Z,20.10
2022-11-29T21:33:17.213Z,21.17
2022-11-29T21:35:45.450Z,20.17
2022-11-29T21:38:18.793Z,23.57
2022-11-29T21:40:46.975Z,18.60
2022-11-29T21:43:15.192Z,22.33
2022-11-29T21:45:43.459Z,23.10
2022-11-29T21:48:25.500Z,22.10
2022-11-29T21:50:53.685Z,20.90
2022-11-29T21:53:23.709Z,23.07
2022-11-29T21:55:57.914Z,21.87
2022-11-29T21:58:26.367Z,21.50
2022-11-29T22:00:54.814Z,23.07
2022-11-29T22:03:23.251Z,25.07
2022-11-29T22:05:51.673Z,22.03
2022-11-29T22:08:20.130Z,22.20
2022-11-29T22:10:49.983Z,23.00
2022-11-29T22:13:18.430Z,20.77
2022-11-29T22:15:46.919Z,23.67
2022-11-29T22:18:15.654Z,22.20
2022-11-29T22:20:44.104Z,22.10
2022-11-29T22:23:12.606Z,26.77
2022-11-29T22:25:41.155Z,28.20
2022-11-29T22:28:10.973Z,30.67
2022-11-29T22:30:39.426Z,26.70
2022-11-29T22:33:13.146Z,26.20
2022-11-29T22:35:44.431Z,23.10
2022-11-29T22:38:12.879Z,27.07
2022-11-29T22:40:41.321Z,31.40
2022-11-29T22:43:11.146Z,30.67
2022-11-29T22:45:39.605Z,31.13
2022-11-29T22:48:08.020Z,29.57
2022-11-29T22:50:36.437Z,30.23
2022-11-29T22:53:04.881Z,31.57
2022-11-29T22:55:33.552Z,31.17
2022-11-29T22:58:02.024Z,40.90
2022-11-29T23:00:32.513Z,38.27
2022-11-29T23:03:00.962Z,35.80
2022-11-29T23:05:32.203Z,23.63
2022-11-29T23:08:01.058Z,28.67
2022-11-29T23:10:29.487Z,24.13
2022-11-29T23:12:57.904Z,26.37
2022-11-29T23:15:26.430Z,25.67
2022-11-29T23:17:56.321Z,26.27
2022-11-29T23:20:24.771Z,24.07
2022-11-29T23:22:53.231Z,23.63
2022-11-29T23:25:21.783Z,34.10
2022-11-29T23:27:50.723Z,36.40
2022-11-29T23:30:19.260Z,30.10
2022-11-29T23:32:47.730Z,33.87
2022-11-29T23:35:17.687Z,29.80
2022-11-29T23:37:46.215Z,34.07
2022-11-29T23:40:15.083Z,31.00
2022-11-29T23:42:46.966Z,39.80
2022-11-29T23:45:15.732Z,33.70
2022-11-29T23:47:44.172Z,25.67
2022-11-29T23:50:13.041Z,23.50
2022-11-29T23:52:42.913Z,23.80
2022-11-29T23:55:14.478Z,31.20
2022-11-29T23:57:42.917Z,25.57
